createdAt,value
2023-03-30T00:00:27.440Z,47.07
2023-03-30T00:10:30.103Z,48.14
2023-03-30T00:20:33.108Z,49.36
2023-03-30T00:30:37.504Z,50.18
2023-03-30T00:40:42.515Z,51.02
2023-03-30T00:50:49.733Z,51.77
2023-03-30T01:00:53.338Z,52.64
2023-03-30T01:11:02.974Z,53.34
2023-03-30T01:21:14.004Z,54.27
2023-03-30T01:31:29.404Z,55.32
2023-03-30T01:41:40.807Z,56.66
2023-03-30T01:51:48.787Z,57.94
2023-03-30T02:01:55.353Z,58.77
2023-03-30T02:12:00.018Z,60.32
2023-03-30T02:22:12.025Z,61.09
2023-03-30T02:32:27.136Z,62.42
2023-03-30T02:43:03.706Z,63.19
2023-03-30T02:53:25.457Z,63.88
2023-03-30T03:03:37.759Z,64.45
2023-03-30T03:13:40.869Z,64.20
2023-03-30T03:23:44.462Z,65.02
2023-03-30T03:33:53.695Z,64.70
2023-03-30T03:44:04.198Z,65.56
2023-03-30T03:54:07.128Z,65.81
2023-03-30T04:04:10.259Z,66.55
2023-03-30T04:14:14.860Z,67.29
2023-03-30T04:24:36.491Z,67.75
2023-03-30T04:34:57.263Z,68.34
2023-03-30T04:45:14.424Z,69.01
2023-03-30T04:55:37.286Z,69.84
2023-03-30T05:06:01.517Z,69.55
2023-03-30T05:16:40.711Z,69.97
2023-03-30T05:27:02.585Z,68.84
2023-03-30T05:37:18.086Z,68.85
2023-03-30T05:47:33.542Z,69.58
2023-03-30T05:57:51.020Z,69.25
2023-03-30T06:08:15.514Z,69.31
2023-03-30T06:18:25.161Z,69.15
2023-03-30T06:28:36.290Z,68.92
2023-03-30T06:38:40.562Z,67.98
2023-03-30T06:48:45.532Z,66.98
2023-03-30T06:59:06.333Z,65.61
2023-03-30T07:09:22.145Z,66.06
2023-03-30T07:19:27.126Z,64.97
2023-03-30T07:29:35.148Z,64.98
2023-03-30T07:39:42.498Z,64.99
2023-03-30T07:49:48.492Z,64.48
2023-03-30T07:59:56.994Z,64.33
2023-03-30T08:10:15.130Z,64.77
2023-03-30T08:20:55.118Z,63.76
2023-03-30T08:31:08.416Z,63.46
2023-03-30T08:41:28.065Z,63.07
2023-03-30T08:51:48.466Z,64.09
2023-03-30T09:02:22.943Z,65.09
2023-03-30T09:12:44.750Z,66.82
2023-03-30T09:22:47.746Z,67.83
2023-03-30T09:33:08.059Z,69.37
2023-03-30T09:43:44.444Z,67.74
2023-03-30T09:53:53.004Z,68.28
2023-03-30T10:04:16.793Z,67.38
2023-03-30T10:14:42.580Z,66.52
2023-03-30T10:24:55.906Z,66.34
2023-03-30T10:35:02.144Z,66.80
2023-03-30T10:45:20.958Z,66.24
2023-03-30T10:55:34.524Z,63.61
2023-03-30T11:05:50.009Z,61.74
2023-03-30T11:15:57.134Z,61.49
2023-03-30T11:26:08.986Z,60.38
2023-03-30T11:36:40.890Z,61.33
2023-03-30T11:46:56.209Z,60.95
2023-03-30T11:57:21.518Z,60.04
2023-03-30T12:07:49.781Z,58.66
2023-03-30T12:18:30.741Z,58.31
2023-03-30T12:29:11.295Z,58.24
2023-03-30T12:39:57.563Z,58.07
2023-03-30T12:50:08.436Z,58.03
2023-03-30T13:00:28.991Z,57.91
2023-03-30T13:10:39.453Z,58.61
2023-03-30T13:21:08.455Z,58.54
2023-03-30T13:31:23.282Z,58.73
2023-03-30T13:41:58.406Z,58.55
2023-03-30T13:52:10.159Z,58.77
2023-03-30T14:02:18.018Z,58.42
2023-03-30T14:12:20.433Z,58.58
2023-03-30T14:22:31.584Z,59.18
2023-03-30T14:32:36.712Z,63.86
2023-03-30T14:42:45.315Z,64.40
2023-03-30T14:52:54.356Z,62.96
2023-03-30T15:02:59.159Z,62.86
2023-03-30T15:13:07.733Z,65.04
2023-03-30T15:23:15.476Z,69.11
2023-03-30T15:33:28.388Z,72.21
2023-03-30T15:43:38.114Z,74.46
2023-03-30T15:53:45.341Z,76.67
2023-03-30T16:04:01.589Z,77.82
2023-03-30T16:14:07.686Z,78.74
2023-03-30T16:24:13.732Z,79.67
2023-03-30T16:34:20.650Z,78.88
2023-03-30T16:44:26.217Z,79.08
2023-03-30T16:54:32.972Z,79.17
2023-03-30T17:04:37.405Z,79.54
2023-03-30T17:14:44.119Z,79.90
2023-03-30T17:24:47.184Z,80.19
2023-03-30T17:34:54.579Z,80.60
2023-03-30T17:45:11.846Z,80.98
2023-03-30T17:55:23.338Z,80.83
2023-03-30T18:05:32.154Z,80.72
2023-03-30T18:15:40.023Z,81.18
2023-03-30T18:25:50.783Z,85.19
2023-03-30T18:35:57.292Z,89.95
2023-03-30T18:46:17.128Z,95.17
2023-03-30T18:56:28.358Z,93.97
2023-03-30T19:06:35.721Z,98.85
2023-03-30T19:16:39.331Z,100.00
2023-03-30T19:26:55.459Z,100.00
2023-03-30T19:37:02.424Z,100.00
2023-03-30T19:47:12.444Z,100.00
2023-03-30T19:57:18.708Z,100.00
2023-03-30T20:07:27.000Z,100.00
2023-03-30T20:17:56.697Z,100.00
2023-03-30T20:27:59.548Z,100.00
2023-03-30T20:38:11.758Z,100.00
2023-03-30T20:48:30.724Z,100.00
2023-03-30T20:58:37.034Z,100.00
2023-03-30T21:08:41.880Z,100.00
2023-03-30T21:18:44.205Z,100.00
2023-03-30T21:28:46.480Z,100.00
2023-03-30T21:38:48.923Z,100.00
2023-03-30T21:48:54.756Z,100.00
2023-03-30T21:58:57.654Z,100.00
2023-03-30T22:09:02.336Z,100.00
2023-03-30T22:19:04.992Z,100.00
2023-03-30T22:29:09.937Z,100.00
2023-03-30T22:39:13.044Z,100.00
2023-03-30T22:49:15.752Z,100.00
2023-03-30T22:59:21.332Z,100.00
2023-03-30T23:09:24.491Z,100.00
2023-03-30T23:19:29.585Z,100.00
2023-03-30T23:29:36.549Z,100.00
2023-03-30T23:39:39.148Z,100.00
2023-03-30T23:49:48.616Z,100.00
2023-03-30T23:59:50.897Z,100.00
